Meknes, Morocco
Current Conditions -  °F | °C
As of 9:00 AM on Friday 31 Oct 2014 (Local Time) from GMFM Reporting Station
Clear Clear  
Wind Chill: 70°   Ceiling: Unl
Heat Index: 70°   Visibility: 6mi
Dew Point: 36°   Wind: 7mph
Humidity: 28%   Direction: 180°S
Pressure: 30.09"   Gusts: NA
Location:  33.9°N, 5.56°W
Report Text: GMFM 310800Z 18006KT CAVOK 21/02 Q1019 NOSIG
Loading
Personal Weather Stations






























Interactive Weather Map New forecast layout! Learn more

10-Day Weather Forecast

Advertisements
Track Severe Weather on mobile